Time;durP1;ratioP1;P1;durP2;ratioP2;P2;SDS_P1;SDS_P2;PMS_P1;PMS_P2;Temp;Humidity;BMP_temperature;BMP_pressure;BME280_temperature;BME280_humidity;BME280_pressure;Samples;Min_cycle;Max_cycle;Signal;HPM_P1;HPM_P2
2021/12/27 00:00:40;;;;;;;1.52;1.52;;;;;;;-18.54;90.43;100304.13;5014460;28;19921;-65
2021/12/27 00:03:08;;;;;;;2.25;1.70;;;;;;;-18.67;89.75;100297.63;5013909;28;20049;-67
2021/12/27 00:05:36;;;;;;;8.48;1.73;;;;;;;-18.76;88.83;100305.44;5014465;28;20111;-67
2021/12/27 00:08:03;;;;;;;1.83;1.73;;;;;;;-18.94;87.96;100305.28;5014243;28;20045;-67
2021/12/27 00:10:30;;;;;;;2.58;2.38;;;;;;;-19.05;90.83;100300.53;5014304;28;20045;-64
2021/12/27 00:12:57;;;;;;;;;;;;;;;-19.02;90.80;100318.06;5014726;28;20061;-67
2021/12/27 00:15:24;;;;;;;2.03;1.88;;;;;;;-18.99;90.96;100315.72;5014237;28;19922;-66
2021/12/27 00:17:53;;;;;;;1.52;1.42;;;;;;;-19.15;90.56;100314.88;5014122;28;20049;-64
2021/12/27 00:20:21;;;;;;;2.35;2.17;;;;;;;-19.21;89.42;100323.56;5014046;28;20046;-67
2021/12/27 00:22:49;;;;;;;2.03;1.88;;;;;;;-19.42;88.86;100328.16;5014049;28;20069;-66
2021/12/27 00:25:17;;;;;;;2.00;1.90;;;;;;;-19.52;87.64;100328.41;5014270;28;20049;-67
2021/12/27 00:27:45;;;;;;;2.53;2.33;;;;;;;-19.76;88.60;100331.19;5013908;28;20507;-68
2021/12/27 00:30:13;;;;;;;2.08;1.98;;;;;;;-19.75;88.07;100335.41;5014370;28;20480;-67
2021/12/27 00:32:43;;;;;;;1.98;1.85;;;;;;;-19.80;86.93;100336.75;5013961;28;20054;-68
2021/12/27 00:35:13;;;;;;;1.85;1.75;;;;;;;-19.45;86.12;100342.88;5013782;28;20057;-67
2021/12/27 00:37:40;;;;;;;1.50;1.42;;;;;;;-19.38;84.46;100342.47;5014132;28;20081;-67
2021/12/27 00:40:11;;;;;;;2.25;2.15;;;;;;;-19.50;85.29;100344.22;5013590;28;20056;-67
2021/12/27 00:42:38;;;;;;;1.40;1.40;;;;;;;-19.33;84.89;100344.44;5013624;28;20054;-67
2021/12/27 00:45:05;;;;;;;;;;;;;;;-19.36;84.95;100341.78;5014063;28;20057;-66
2021/12/27 00:47:32;;;;;;;1.42;1.40;;;;;;;-19.78;86.24;100341.03;5013525;28;19925;-66
2021/12/27 00:49:59;;;;;;;;;;;;;;;-19.86;86.25;100351.22;5013910;28;20050;-68
2021/12/27 00:52:27;;;;;;;1.20;1.20;;;;;;;-19.62;85.59;100350.19;5013549;28;19929;-67
2021/12/27 00:54:54;;;;;;;1.85;1.75;;;;;;;-19.92;84.58;100361.63;5013460;28;20045;-67
2021/12/27 00:57:21;;;;;;;;;;;;;;;-19.95;86.30;100356.50;5013787;28;20058;-67
2021/12/27 00:59:48;;;;;;;2.15;2.05;;;;;;;-20.13;87.10;100361.19;5013350;28;19928;-66
2021/12/27 01:02:15;;;;;;;1.65;1.58;;;;;;;-20.13;87.12;100363.69;5013647;28;20061;-67
2021/12/27 01:04:42;;;;;;;1.58;1.55;;;;;;;-20.23;86.54;100374.63;5013589;28;20046;-67
2021/12/27 01:07:09;;;;;;;2.33;2.22;;;;;;;-20.22;88.23;100373.84;5013344;28;20057;-66
2021/12/27 01:09:51;;;;;;;1.80;1.70;;;;;;;-20.15;89.53;100375.09;5013059;28;20046;-67
2021/12/27 01:12:30;;;;;;;1.63;1.52;;;;;;;-20.17;89.37;100379.09;5013081;28;20052;-65
2021/12/27 01:15:22;;;;;;;1.05;1.05;;;;;;;-20.09;89.32;100380.41;5012628;28;20111;-66
2021/12/27 01:17:51;;;;;;;1.70;1.60;;;;;;;-20.16;89.03;100393.19;5013246;28;20045;-67
2021/12/27 01:20:21;;;;;;;1.52;1.50;;;;;;;-20.01;89.97;100394.16;5012960;28;20049;-67
2021/12/27 01:22:49;;;;;;;2.08;1.92;;;;;;;-19.90;90.07;100392.31;5012648;28;20061;-64
2021/12/27 01:25:17;;;;;;;4.40;2.45;;;;;;;-19.76;89.86;100398.09;5013252;28;20045;-67
2021/12/27 01:27:44;;;;;;;1.90;1.80;;;;;;;-19.81;89.04;100396.94;5012966;28;20054;-66
2021/12/27 01:30:16;;;;;;;1.77;1.67;;;;;;;-19.67;89.50;100402.75;5013047;28;20498;-66
2021/12/27 01:32:47;;;;;;;2.03;1.92;;;;;;;-19.66;86.01;100404.44;5012837;28;20050;-66
2021/12/27 01:35:14;;;;;;;1.38;1.38;;;;;;;-19.70;83.91;100405.03;5012828;28;20084;-65
2021/12/27 01:37:42;;;;;;;1.38;1.38;;;;;;;-19.90;83.57;100402.22;5012779;28;20046;-68
2021/12/27 01:40:11;;;;;;;2.28;2.03;;;;;;;-20.30;85.38;100406.34;5012582;28;20046;-68
2021/12/27 01:43:06;;;;;;;1.90;1.80;;;;;;;-20.25;87.43;100405.84;5012567;28;20057;-67
2021/12/27 01:45:34;;;;;;;1.67;1.58;;;;;;;-19.97;87.27;100407.56;5012466;28;20420;-67
2021/12/27 01:48:01;;;;;;;1.80;1.70;;;;;;;-19.94;85.44;100406.88;5012436;28;20057;-65
2021/12/27 01:50:28;;;;;;;1.10;1.10;;;;;;;-19.87;80.91;100413.94;5012350;28;20053;-67
2021/12/27 01:52:55;;;;;;;;;;;;;;;-20.23;77.80;100406.81;5012945;28;20481;-65
2021/12/27 01:55:21;;;;;;;;;;;;;;;-20.92;77.22;100409.03;5013058;28;19921;-67
2021/12/27 01:57:49;;;;;;;;;;;;;;;-21.31;81.66;100413.97;5012983;28;20371;-64
2021/12/27 02:00:17;;;;;;;1.30;1.30;;;;;;;-21.10;79.52;100416.97;5012427;28;20296;-64
2021/12/27 02:02:45;;;;;;;1.30;1.30;;;;;;;-21.45;78.11;100418.75;5012359;28;20050;-69
2021/12/27 02:05:12;;;;;;;1.10;1.10;;;;;;;-21.69;80.11;100427.88;5012388;28;20057;-68
2021/12/27 02:07:39;;;;;;;1.30;1.30;;;;;;;-21.76;81.40;100427.44;5012588;28;20049;-67
2021/12/27 02:10:07;;;;;;;1.77;1.67;;;;;;;-21.78;82.03;100433.91;5012250;28;20046;-67
2021/12/27 02:12:34;;;;;;;1.30;1.30;;;;;;;-22.24;81.61;100430.75;5012390;28;20054;-68
2021/12/27 02:15:09;;;;;;;1.25;1.25;;;;;;;-21.97;81.87;100438.31;5012284;28;20049;-68
2021/12/27 02:17:37;;;;;;;1.30;1.30;;;;;;;-21.69;83.00;100435.28;5012433;28;20440;-66
2021/12/27 02:20:07;;;;;;;1.48;1.45;;;;;;;-21.58;83.41;100441.78;5012226;28;20400;-65
2021/12/27 02:22:36;;;;;;;1.40;1.40;;;;;;;-21.65;82.05;100434.72;5012435;28;20050;-68
2021/12/27 02:25:06;;;;;;;1.60;1.50;;;;;;;-21.80;83.37;100446.91;5013620;28;20046;-68
2021/12/27 02:27:34;;;;;;;1.30;1.30;;;;;;;-21.78;84.41;100455.25;5015856;28;20061;-64
2021/12/27 02:30:01;;;;;;;1.17;1.17;;;;;;;-21.44;82.87;100451.00;5016545;28;20480;-66
2021/12/27 02:32:28;;;;;;;1.45;1.45;;;;;;;-21.40;82.66;100455.38;5016203;28;20411;-69
2021/12/27 02:34:55;;;;;;;1.58;1.50;;;;;;;-21.40;82.81;100457.84;5016338;28;20049;-64
2021/12/27 02:37:23;;;;;;;;;;;;;;;-21.44;83.04;100457.56;5016567;28;20061;-65
2021/12/27 02:39:50;;;;;;;1.48;1.48;;;;;;;-21.57;82.32;100458.34;5016012;28;19921;-65
2021/12/27 02:42:17;;;;;;;;;;;;;;;-22.11;84.21;100462.06;5016361;28;20046;-66
2021/12/27 02:44:44;;;;;;;2.15;2.05;;;;;;;-22.20;84.75;100459.81;5015860;28;19925;-67
2021/12/27 02:47:12;;;;;;;1.55;1.50;;;;;;;-21.79;83.94;100460.94;5016008;28;20045;-69
2021/12/27 02:49:38;;;;;;;1.33;1.33;;;;;;;-21.63;82.75;100475.19;5015708;28;20046;-64
2021/12/27 02:52:05;;;;;;;;;;;;;;;-21.73;83.36;100467.91;5016226;28;20147;-64
2021/12/27 02:54:34;;;;;;;1.30;1.30;;;;;;;-21.85;85.11;100471.25;5015616;28;19925;-66
2021/12/27 02:57:00;;;;;;;1.15;1.15;;;;;;;-21.77;85.06;100480.03;5015896;28;20045;-65
2021/12/27 02:59:27;;;;;;;;;;;;;;;-21.99;85.93;100477.69;5016208;28;20046;-69
2021/12/27 03:01:54;;;;;;;;;;;;;;;-22.00;86.24;100478.44;5015974;28;20291;-66
2021/12/27 03:04:21;;;;;;;1.35;1.35;;;;;;;-21.99;86.51;100477.69;5015735;28;19932;-67
2021/12/27 03:06:47;;;;;;;;;;;;;;;-21.97;86.40;100480.28;5016016;28;20045;-68
2021/12/27 03:09:14;;;;;;;;;;;;;;;-21.84;87.07;100480.38;5015889;28;19921;-69
2021/12/27 03:11:42;;;;;;;1.23;1.23;;;;;;;-21.97;87.60;100480.28;5015588;28;19921;-69
2021/12/27 03:14:09;;;;;;;1.67;1.58;;;;;;;-21.86;86.77;100481.88;5015507;28;20057;-68
2021/12/27 03:16:36;;;;;;;1.20;1.20;;;;;;;-21.85;85.80;100486.06;5015449;28;20046;-70
2021/12/27 03:19:02;;;;;;;1.33;1.33;;;;;;;-21.39;84.75;100478.50;5015396;28;20053;-67
2021/12/27 03:21:29;;;;;;;;;;;;;;;-21.15;83.07;100487.50;5015723;28;20057;-68
2021/12/27 03:23:56;;;;;;;1.25;1.25;;;;;;;-21.34;81.37;100477.16;5015031;28;19928;-63
2021/12/27 03:26:23;;;;;;;;;;;;;;;-21.34;81.77;100473.06;5015644;28;20493;-67
2021/12/27 03:28:51;;;;;;;;;;;;;;;-21.58;79.26;100473.88;5015440;28;19928;-69
2021/12/27 03:31:19;;;;;;;1.30;1.30;;;;;;;-21.77;81.24;100479.19;5015654;28;20011;-68
2021/12/27 03:33:46;;;;;;;1.30;1.30;;;;;;;-21.83;82.21;100478.75;5015063;28;20046;-68
2021/12/27 03:36:13;;;;;;;1.77;1.67;;;;;;;-21.76;80.76;100480.91;5013813;28;20050;-68
2021/12/27 03:38:43;;;;;;;3.55;2.20;;;;;;;-21.89;81.42;100483.28;5014754;28;20054;-67
2021/12/27 03:41:13;;;;;;;1.20;1.20;;;;;;;-21.90;82.50;100489.84;5014986;28;20060;-65
2021/12/27 03:43:41;;;;;;;1.30;1.30;;;;;;;-21.80;84.23;100496.28;5014705;28;20053;-67
2021/12/27 03:46:09;;;;;;;1.50;1.40;;;;;;;-21.58;84.72;100506.00;5014700;28;20053;-68
2021/12/27 03:48:36;;;;;;;1.40;1.40;;;;;;;-21.66;84.37;100497.22;5014682;28;20408;-64
2021/12/27 03:51:03;;;;;;;2.28;2.17;;;;;;;-21.82;86.11;100488.75;5014447;28;20046;-65
2021/12/27 03:53:30;;;;;;;1.30;1.30;;;;;;;-21.78;87.08;100492.28;5014875;28;20156;-65
2021/12/27 03:55:57;;;;;;;1.63;1.52;;;;;;;-21.48;86.76;100488.59;5014603;28;20477;-69
2021/12/27 03:58:30;;;;;;;;;;;;;;;-21.51;85.14;100488.38;5015229;28;20045;-64
2021/12/27 04:01:14;;;;;;;2.55;1.63;;;;;;;-21.57;86.27;100485.50;5014426;28;19995;-67
2021/12/27 04:03:43;;;;;;;1.27;1.27;;;;;;;-21.27;86.52;100484.19;5014536;28;20049;-64
2021/12/27 04:06:10;;;;;;;1.70;1.60;;;;;;;-20.88;86.15;100493.44;5014315;28;20489;-67
2021/12/27 04:08:37;;;;;;;2.28;2.05;;;;;;;-21.11;86.62;100488.56;5014353;28;20057;-64
2021/12/27 04:11:04;;;;;;;;;;;;;;;-21.20;86.18;100493.75;5014825;28;20053;-66
2021/12/27 04:13:30;;;;;;;;;;;;;;;-21.27;86.24;100493.22;5014621;28;20288;-68
2021/12/27 04:15:57;;;;;;;;;;;;;;;-21.17;85.79;100496.41;5014648;28;19921;-68
2021/12/27 04:18:24;;;;;;;1.30;1.30;;;;;;;-20.83;84.75;100502.75;5014507;28;19921;-68
2021/12/27 04:20:53;;;;;;;2.20;2.00;;;;;;;-21.12;84.15;100506.63;5014201;28;20053;-67
2021/12/27 04:23:19;;;;;;;1.45;1.45;;;;;;;-21.19;84.68;100507.84;5013963;28;20682;-68
2021/12/27 04:25:47;;;;;;;2.28;2.08;;;;;;;-21.08;88.09;100507.69;5013886;28;20507;-66
2021/12/27 04:28:15;;;;;;;2.00;1.90;;;;;;;-21.12;85.74;100505.00;5013870;28;20046;-68
2021/12/27 04:30:42;;;;;;;1.38;1.38;;;;;;;-20.82;84.92;100507.81;5014323;28;20515;-65
2021/12/27 04:33:09;;;;;;;1.30;1.30;;;;;;;-20.69;82.02;100502.03;5014106;28;20053;-64
2021/12/27 04:35:36;;;;;;;1.50;1.50;;;;;;;-20.91;80.54;100512.97;5014071;28;20042;-65
2021/12/27 04:38:05;;;;;;;2.25;2.15;;;;;;;-21.04;81.81;100509.59;5013789;28;20481;-68
2021/12/27 04:40:36;;;;;;;1.20;1.20;;;;;;;-21.07;84.48;100510.25;5013987;28;20500;-69
2021/12/27 04:43:08;;;;;;;2.58;2.00;;;;;;;-21.31;85.21;100505.38;5013676;28;20046;-66
2021/12/27 04:45:35;;;;;;;2.22;2.03;;;;;;;-21.63;85.16;100518.03;5013906;28;20046;-68
2021/12/27 04:48:02;;;;;;;1.33;1.33;;;;;;;-21.51;86.40;100518.03;5013591;28;20046;-63
2021/12/27 04:50:29;;;;;;;;;;;;;;;-21.77;86.15;100521.16;5013953;28;20054;-64
2021/12/27 04:52:57;;;;;;;2.75;2.20;;;;;;;-21.43;86.49;100529.28;5013540;28;19922;-64
2021/12/27 04:55:27;;;;;;;1.95;1.85;;;;;;;-21.20;85.59;100534.91;5013405;28;20045;-65
2021/12/27 04:57:54;;;;;;;1.75;1.65;;;;;;;-21.35;85.52;100534.72;5013628;28;20050;-65
2021/12/27 05:00:22;;;;;;;1.33;1.33;;;;;;;-21.50;85.97;100531.22;5013232;28;20485;-64
2021/12/27 05:02:49;;;;;;;2.20;2.10;;;;;;;-21.40;87.45;100523.69;5013352;28;20050;-64
2021/12/27 05:05:15;;;;;;;;;;;;;;;-21.30;86.44;100526.00;5013637;28;20046;-66
2021/12/27 05:07:44;;;;;;;;;;;;;;;-21.40;85.62;100533.56;5013838;28;20279;-68
2021/12/27 05:10:12;;;;;;;2.90;1.52;;;;;;;-21.36;86.43;100525.59;5013307;28;19928;-65
2021/12/27 05:12:40;;;;;;;4.03;1.98;;;;;;;-21.33;87.40;100529.13;5013294;28;20073;-64
2021/12/27 05:15:07;;;;;;;1.40;1.40;;;;;;;-20.90;83.48;100528.69;5013207;28;20531;-65
2021/12/27 05:17:34;;;;;;;2.67;2.47;;;;;;;-20.74;82.68;100525.63;5013234;28;20165;-67
2021/12/27 05:20:04;;;;;;;1.30;1.30;;;;;;;-20.82;83.26;100521.78;5013212;28;20050;-68
2021/12/27 05:22:32;;;;;;;1.83;1.73;;;;;;;-21.00;82.28;100528.84;5013020;28;20108;-69
2021/12/27 05:24:59;;;;;;;1.20;1.20;;;;;;;-21.09;83.77;100526.59;5013007;28;20057;-67
2021/12/27 05:27:25;;;;;;;;;;;;;;;-21.39;82.96;100532.84;5013398;28;20053;-66
2021/12/27 05:29:53;;;;;;;;;;;;;;;-21.57;84.74;100532.44;5013819;28;19929;-66
2021/12/27 05:32:20;;;;;;;1.30;1.30;;;;;;;-21.59;85.31;100536.41;5012956;28;19921;-69
2021/12/27 05:34:47;;;;;;;;;;;;;;;-21.31;84.30;100542.44;5013553;28;20073;-69
2021/12/27 05:37:14;;;;;;;;;;;;;;;-21.05;83.44;100537.56;5013326;28;19936;-65
2021/12/27 05:39:41;;;;;;;1.30;1.30;;;;;;;-20.92;82.75;100542.56;5012701;28;19921;-66
2021/12/27 05:42:09;;;;;;;1.20;1.20;;;;;;;-20.95;82.32;100547.31;5012769;28;20064;-68
2021/12/27 05:44:36;;;;;;;2.67;2.45;;;;;;;-21.03;82.50;100551.75;5012647;28;20050;-69
2021/12/27 05:47:04;;;;;;;;;;;;;;;-21.10;83.14;100559.50;5013269;28;20120;-68
2021/12/27 05:49:31;;;;;;;1.35;1.35;;;;;;;-21.03;85.80;100558.31;5012655;28;19926;-66
2021/12/27 05:51:58;;;;;;;;;;;;;;;-21.13;86.06;100544.47;5012862;28;20042;-68
2021/12/27 05:54:25;;;;;;;2.03;1.92;;;;;;;-21.09;86.34;100543.88;5012438;28;20288;-68
2021/12/27 05:56:52;;;;;;;2.03;1.92;;;;;;;-20.86;86.27;100542.97;5012655;28;20053;-68
2021/12/27 05:59:19;;;;;;;;;;;;;;;-20.61;87.14;100547.06;5012444;28;20054;-68
2021/12/27 06:01:47;;;;;;;1.95;1.85;;;;;;;-20.67;87.30;100540.09;5012707;28;19921;-68
2021/12/27 06:04:15;;;;;;;2.45;1.77;;;;;;;-20.62;87.50;100546.22;5012250;28;20057;-67
2021/12/27 06:06:42;;;;;;;2.78;2.63;;;;;;;-20.56;87.01;100540.81;5012285;28;20493;-66
2021/12/27 06:09:09;;;;;;;2.03;1.92;;;;;;;-20.48;87.81;100542.97;5012599;28;20057;-68
2021/12/27 06:11:36;;;;;;;2.22;2.13;;;;;;;-20.29;87.67;100545.03;5012545;28;20050;-64
2021/12/27 06:14:03;;;;;;;;;;;;;;;-20.27;87.42;100545.97;5012830;28;20393;-65
2021/12/27 06:16:30;;;;;;;1.38;1.35;;;;;;;-20.13;87.47;100549.34;5012340;28;19929;-68
2021/12/27 06:18:57;;;;;;;1.63;1.52;;;;;;;-19.71;86.36;100552.81;5012177;28;20054;-66
2021/12/27 06:21:26;;;;;;;2.65;2.45;;;;;;;-19.78;85.40;100553.19;5012103;28;20493;-68
2021/12/27 06:23:53;;;;;;;2.17;2.08;;;;;;;-19.86;86.13;100555.19;5012018;28;20064;-69
2021/12/27 06:26:20;;;;;;;1.40;1.40;;;;;;;-19.49;85.05;100559.06;5012279;28;20052;-66
2021/12/27 06:28:47;;;;;;;3.00;2.25;;;;;;;-19.47;84.56;100553.44;5012369;28;20484;-67
2021/12/27 06:31:14;;;;;;;1.80;1.70;;;;;;;-19.32;84.12;100560.97;5012468;28;20492;-64
2021/12/27 06:33:40;;;;;;;2.22;2.13;;;;;;;-19.30;83.65;100561.06;5012508;28;20046;-64
2021/12/27 06:36:08;;;;;;;2.67;1.60;;;;;;;-19.27;83.24;100572.00;5012497;28;20069;-66
2021/12/27 06:38:36;;;;;;;2.00;1.90;;;;;;;-19.30;84.27;100571.81;5012348;28;20084;-67
2021/12/27 06:41:03;;;;;;;3.55;2.30;;;;;;;-19.27;84.54;100576.97;5011990;28;20050;-65
2021/12/27 06:43:31;;;;;;;2.97;2.70;;;;;;;-19.38;85.30;100571.34;5011968;28;20053;-67
2021/12/27 06:45:58;;;;;;;2.33;2.17;;;;;;;-19.34;85.76;100575.75;5011974;28;20046;-65
2021/12/27 06:48:25;;;;;;;;;;;;;;;-19.35;86.27;100576.50;5012267;28;20484;-68
2021/12/27 06:50:51;;;;;;;2.50;2.30;;;;;;;-19.35;87.16;100569.06;5011870;28;20368;-68
2021/12/27 06:53:18;;;;;;;1.85;1.75;;;;;;;-19.08;87.98;100565.69;5012069;28;20061;-69
2021/12/27 06:55:47;;;;;;;;;;;;;;;-18.68;88.14;100574.69;5012666;28;20049;-68
2021/12/27 06:58:14;;;;;;;1.38;1.38;;;;;;;-18.29;90.02;100571.97;5012010;28;19929;-68
2021/12/27 07:00:42;;;;;;;2.35;2.15;;;;;;;-18.17;89.77;100569.34;5012229;28;20049;-69
2021/12/27 07:03:10;;;;;;;1.60;1.50;;;;;;;-17.78;90.93;100569.03;5012110;28;20050;-68
2021/12/27 07:05:37;;;;;;;1.50;1.50;;;;;;;-17.65;90.71;100568.06;5012199;28;20050;-68
2021/12/27 07:08:03;;;;;;;;;;;;;;;-17.40;91.35;100565.28;5012249;28;20057;-67
2021/12/27 07:10:31;;;;;;;2.53;2.33;;;;;;;-17.32;91.77;100565.72;5012174;28;19925;-68
2021/12/27 07:13:01;;;;;;;1.42;1.35;;;;;;;-17.17;90.80;100570.66;5015187;28;20046;-68
2021/12/27 07:15:28;;;;;;;2.60;2.40;;;;;;;-17.22;90.03;100567.06;5015492;28;20136;-66
2021/12/27 07:17:55;;;;;;;3.42;2.83;;;;;;;-17.28;90.35;100569.22;5015515;28;20061;-67
2021/12/27 07:20:22;;;;;;;2.60;2.38;;;;;;;-17.28;89.56;100566.75;5015281;28;20097;-67
2021/12/27 07:22:49;;;;;;;;;;;;;;;-17.14;90.20;100564.19;5015541;28;20053;-64
2021/12/27 07:25:16;;;;;;;;;;;;;;;-16.94;89.06;100575.19;5015426;28;20363;-67
2021/12/27 07:27:43;;;;;;;1.98;1.75;;;;;;;-17.04;90.32;100579.63;5015144;28;19921;-65
2021/12/27 07:30:13;;;;;;;4.47;2.03;;;;;;;-16.97;89.74;100585.00;5015892;28;20060;-65
2021/12/27 07:32:40;;;;;;;2.92;2.63;;;;;;;-16.98;89.61;100584.91;5015189;28;20049;-65
2021/12/27 07:35:08;;;;;;;;;;;;;;;-16.76;90.11;100580.25;5015436;28;20064;-65
2021/12/27 07:37:35;;;;;;;2.35;2.08;;;;;;;-16.84;89.74;100591.47;5014823;28;19921;-68
2021/12/27 07:40:02;;;;;;;;;;;;;;;-16.81;89.09;100591.63;5015194;28;20058;-64
2021/12/27 07:42:29;;;;;;;1.42;1.33;;;;;;;-16.54;89.20;100592.16;5015045;28;19921;-64
2021/12/27 07:44:55;;;;;;;1.15;1.15;;;;;;;-16.46;88.10;100590.06;5014828;28;20531;-65
2021/12/27 07:47:24;;;;;;;1.00;1.00;;;;;;;-16.43;87.63;100591.84;5014868;28;20075;-67
2021/12/27 07:49:50;;;;;;;3.22;2.80;;;;;;;-16.50;88.33;100589.03;5014919;28;20045;-66
2021/12/27 07:52:17;;;;;;;7.13;3.03;;;;;;;-16.49;88.72;100599.84;5014726;28;20496;-66
2021/12/27 07:54:44;;;;;;;3.78;3.15;;;;;;;-16.65;87.92;100594.88;5014735;28;20046;-64
2021/12/27 07:57:12;;;;;;;2.10;1.92;;;;;;;-16.53;88.01;100601.34;5014690;28;20045;-65
2021/12/27 07:59:39;;;;;;;3.55;3.30;;;;;;;-16.34;88.16;100604.75;5014651;28;20049;-64
2021/12/27 08:02:06;;;;;;;;;;;;;;;-16.41;88.60;100607.72;5014843;28;20054;-65
2021/12/27 08:04:34;;;;;;;;;;;;;;;-16.48;88.57;100614.88;5014810;28;20383;-68
2021/12/27 08:07:00;;;;;;;1.35;1.33;;;;;;;-16.37;88.82;100612.94;5014202;28;19921;-68
2021/12/27 08:09:27;;;;;;;3.00;2.55;;;;;;;-16.38;88.09;100607.88;5014246;28;20050;-65
2021/12/27 08:11:54;;;;;;;2.60;2.40;;;;;;;-16.25;88.90;100597.75;5014423;28;20050;-68
2021/12/27 08:14:21;;;;;;;1.88;1.77;;;;;;;-16.28;88.24;100592.63;5014235;28;20214;-65
2021/12/27 08:16:48;;;;;;;2.45;2.22;;;;;;;-16.32;88.05;100596.59;5014046;28;20046;-65
2021/12/27 08:19:15;;;;;;;5.20;2.80;;;;;;;-16.29;88.18;100593.38;5014239;28;20050;-67
2021/12/27 08:21:43;;;;;;;;;;;;;;;-16.33;87.69;100594.03;5014555;28;20064;-68
2021/12/27 08:24:11;;;;;;;3.58;3.13;;;;;;;-16.35;88.21;100586.47;5013570;28;19925;-65
2021/12/27 08:26:39;;;;;;;1.98;1.88;;;;;;;-16.38;88.82;100590.47;5014048;28;20054;-68
2021/12/27 08:29:09;;;;;;;5.40;1.98;;;;;;;-16.32;88.91;100593.25;5013840;28;20069;-68
2021/12/27 08:31:36;;;;;;;3.13;2.85;;;;;;;-16.32;87.80;100595.72;5014170;28;20065;-68
2021/12/27 08:34:04;;;;;;;5.18;2.85;;;;;;;-16.32;88.36;100586.63;5013868;28;20050;-69
2021/12/27 08:36:31;;;;;;;4.50;3.45;;;;;;;-16.37;88.35;100602.97;5013787;28;20053;-69
2021/12/27 08:38:59;;;;;;;;;;;;;;;-16.31;88.08;100604.91;5014135;28;20061;-69
2021/12/27 08:41:27;;;;;;;1.77;1.67;;;;;;;-16.34;88.71;100605.59;5013713;28;20084;-69
2021/12/27 08:43:55;;;;;;;8.70;2.83;;;;;;;-16.34;88.22;100597.28;5013471;28;20377;-68
2021/12/27 08:46:22;;;;;;;5.22;3.22;;;;;;;-16.46;88.32;100602.53;5013565;28;20049;-68
2021/12/27 08:48:49;;;;;;;6.60;3.53;;;;;;;-16.42;87.19;100611.00;5013661;28;20053;-69
2021/12/27 08:51:16;;;;;;;3.10;2.83;;;;;;;-16.52;87.71;100610.50;5013836;28;20053;-70
2021/12/27 08:53:43;;;;;;;2.50;2.30;;;;;;;-16.51;88.03;100612.25;5013544;28;20054;-69
2021/12/27 08:56:12;;;;;;;4.00;2.78;;;;;;;-16.47;87.75;100613.25;5013467;28;20050;-67
2021/12/27 08:58:39;;;;;;;2.40;2.17;;;;;;;-16.19;87.78;100594.72;5013476;28;20057;-69
2021/12/27 09:01:07;;;;;;;2.90;2.70;;;;;;;-16.09;88.22;100591.91;5013232;28;20052;-68
2021/12/27 09:03:34;;;;;;;5.47;3.63;;;;;;;-16.19;87.29;100593.06;5013123;28;20050;-69
2021/12/27 09:06:00;;;;;;;4.07;2.58;;;;;;;-16.23;87.82;100596.22;5013482;28;20050;-69
2021/12/27 09:08:27;;;;;;;7.45;4.55;;;;;;;-16.24;88.55;100594.47;5013326;28;20050;-69
2021/12/27 09:10:57;;;;;;;3.05;2.60;;;;;;;-15.90;88.11;100598.63;5013237;28;20053;-69
2021/12/27 09:13:26;;;;;;;5.97;3.83;;;;;;;-16.09;87.75;100597.72;5013092;28;20128;-69
2021/12/27 09:15:53;;;;;;;2.38;2.22;;;;;;;-15.84;87.87;100603.94;5013044;28;20049;-64
2021/12/27 09:18:20;;;;;;;2.10;1.88;;;;;;;-15.82;86.74;100599.88;5013325;28;20050;-68
2021/12/27 09:20:47;;;;;;;6.57;2.33;;;;;;;-15.75;87.02;100604.34;5012881;28;20054;-68
2021/12/27 09:23:14;;;;;;;3.38;3.08;;;;;;;-15.83;86.80;100599.00;5013227;28;20054;-69
2021/12/27 09:25:42;;;;;;;6.65;3.67;;;;;;;-15.98;87.56;100595.75;5012704;28;20064;-68
2021/12/27 09:28:09;;;;;;;3.08;2.50;;;;;;;-16.03;87.00;100599.66;5012753;28;20087;-69
2021/12/27 09:30:38;;;;;;;4.75;2.72;;;;;;;-15.82;86.98;100593.25;5013306;28;20042;-69
2021/12/27 09:33:05;;;;;;;3.28;2.90;;;;;;;-15.71;87.85;100595.41;5013012;28;20045;-68
2021/12/27 09:35:32;;;;;;;;;;;;;;;-15.81;87.10;100592.44;5012617;28;20077;-68
2021/12/27 09:37:58;;;;;;;;;;;;;;;-15.94;87.66;100597.63;5013158;28;19928;-68
2021/12/27 09:40:25;;;;;;;2.42;2.22;;;;;;;-16.07;87.05;100598.66;5012638;28;19921;-67
2021/12/27 09:42:53;;;;;;;1.90;1.80;;;;;;;-15.78;87.19;100596.72;5012654;28;20049;-68
2021/12/27 09:45:22;;;;;;;2.25;1.73;;;;;;;-15.61;87.26;100597.50;5012812;28;20054;-65
2021/12/27 09:47:51;;;;;;;2.90;2.38;;;;;;;-15.63;87.55;100602.41;5012920;28;20057;-67
2021/12/27 09:50:21;;;;;;;6.20;3.30;;;;;;;-15.81;87.63;100594.09;5012630;28;20049;-67
2021/12/27 09:52:48;;;;;;;3.05;2.85;;;;;;;-15.62;86.95;100600.78;5012641;28;20050;-68
2021/12/27 09:55:14;;;;;;;4.05;2.53;;;;;;;-15.64;87.38;100603.22;5012386;28;20053;-67
2021/12/27 09:57:41;;;;;;;3.42;2.30;;;;;;;-15.64;86.51;100600.72;5012454;28;20050;-68
2021/12/27 10:00:11;;;;;;;2.10;2.00;;;;;;;-15.55;86.26;100604.44;5012300;28;20053;-68
2021/12/27 10:02:40;;;;;;;1.95;1.85;;;;;;;-15.60;87.38;100602.56;5012270;28;20504;-67
2021/12/27 10:05:09;;;;;;;10.35;2.75;;;;;;;-15.63;86.67;100609.91;5012425;28;20050;-67
2021/12/27 10:07:41;;;;;;;5.30;3.35;;;;;;;-15.60;87.64;100611.69;5012618;28;20049;-68
2021/12/27 10:10:10;;;;;;;1.45;1.42;;;;;;;-15.60;87.39;100599.22;5012151;28;20412;-67
2021/12/27 10:12:38;;;;;;;4.07;3.20;;;;;;;-15.55;86.98;100607.78;5012163;28;20504;-69
2021/12/27 10:15:08;;;;;;;5.13;3.42;;;;;;;-15.51;87.42;100599.66;5012345;28;20086;-67
2021/12/27 10:17:37;;;;;;;3.10;2.80;;;;;;;-15.51;86.84;100608.75;5012319;28;20053;-65
2021/12/27 10:20:14;;;;;;;1.83;1.73;;;;;;;-15.51;86.74;100604.66;5012205;28;20050;-69
2021/12/27 10:22:42;;;;;;;3.95;2.33;;;;;;;-15.54;88.35;100603.63;5012584;28;20050;-65
2021/12/27 10:25:10;;;;;;;2.88;2.67;;;;;;;-15.53;88.49;100605.34;5012320;28;20076;-64
2021/12/27 10:27:37;;;;;;;2.65;2.15;;;;;;;-15.52;88.22;100605.41;5012276;28;20058;-64
2021/12/27 10:30:13;;;;;;;1.77;1.63;;;;;;;-15.46;87.61;100612.31;5012391;28;20061;-70
2021/12/27 10:32:41;;;;;;;2.78;2.33;;;;;;;-15.44;88.42;100613.25;5012225;28;20042;-69
2021/12/27 10:35:10;;;;;;;3.90;3.25;;;;;;;-15.43;87.81;100615.84;5011973;28;20042;-64
2021/12/27 10:37:39;;;;;;;3.95;2.15;;;;;;;-15.34;87.67;100612.91;5012276;28;20050;-68
2021/12/27 10:40:09;;;;;;;1.45;1.45;;;;;;;-15.31;87.99;100622.19;5012305;28;20049;-68
2021/12/27 10:42:39;;;;;;;3.67;2.65;;;;;;;-15.24;88.28;100619.19;5012064;28;20408;-64
2021/12/27 10:45:08;;;;;;;2.75;2.10;;;;;;;-15.20;88.45;100621.91;5011973;28;20057;-69
2021/12/27 10:47:39;;;;;;;3.38;2.40;;;;;;;-15.19;88.86;100613.63;5015725;28;20049;-70
2021/12/27 10:50:12;;;;;;;2.17;1.98;;;;;;;-15.15;88.61;100622.13;5015862;28;20490;-64
2021/12/27 10:52:50;;;;;;;2.90;2.10;;;;;;;-15.10;88.50;100629.81;5015759;28;20042;-64
2021/12/27 10:55:20;;;;;;;2.17;2.08;;;;;;;-15.02;88.37;100624.38;5015745;28;20507;-66
2021/12/27 10:57:47;;;;;;;3.60;2.47;;;;;;;-15.00;89.17;100624.44;5015532;28;20046;-64
2021/12/27 11:00:31;;;;;;;;;;;;;;;-14.92;89.00;100625.66;5015885;28;20069;-65
2021/12/27 11:03:02;;;;;;;2.15;2.00;;;;;;;-14.90;89.40;100621.56;5015837;28;19921;-69
2021/12/27 11:05:29;;;;;;;3.08;2.72;;;;;;;-14.84;89.23;100623.53;5015634;28;20572;-69
2021/12/27 11:08:00;;;;;;;1.67;1.58;;;;;;;-14.74;90.01;100633.13;5015372;28;20129;-67
2021/12/27 11:10:29;;;;;;;6.25;3.63;;;;;;;-14.75;89.20;100627.25;5015310;28;20050;-67
2021/12/27 11:12:59;;;;;;;3.88;3.10;;;;;;;-14.72;89.82;100629.03;5015809;28;20045;-67
2021/12/27 11:15:27;;;;;;;5.70;4.10;;;;;;;-14.72;90.25;100629.91;5015616;28;20081;-67
2021/12/27 11:17:55;;;;;;;3.55;2.92;;;;;;;-14.65;90.03;100630.19;5015486;28;20046;-68
2021/12/27 11:20:23;;;;;;;4.93;3.38;;;;;;;-14.72;89.82;100636.53;5015283;28;20042;-69
2021/12/27 11:22:51;;;;;;;;;;;;;;;-14.57;89.38;100631.38;5015585;28;20050;-69
2021/12/27 11:25:29;;;;;;;2.35;2.15;;;;;;;-14.49;89.09;100625.03;5015033;28;19929;-69
2021/12/27 11:27:57;;;;;;;5.22;2.75;;;;;;;-14.42;89.78;100628.66;5015208;28;20057;-69
2021/12/27 11:30:27;;;;;;;1.77;1.63;;;;;;;-14.37;89.80;100627.22;5015724;28;20042;-70